Time;durP1;ratioP1;P1;durP2;ratioP2;P2;SDS_P1;SDS_P2;PMS_P1;PMS_P2;Temp;Humidity;BMP_temperature;BMP_pressure;BME280_temperature;BME280_humidity;BME280_pressure;Samples;Min_cycle;Max_cycle;Signal;HPM_P1;HPM_P2
2022/04/16 00:00:06;;;;;;;11.52;5.03;;;;;;;13.57;54.79;98811.63;4438844;32;20077;-93
2022/04/16 00:02:32;;;;;;;10.65;5.05;;;;;;;13.62;54.53;98809.53;4412025;32;20105;-92
2022/04/16 00:04:57;;;;;;;11.50;5.03;;;;;;;13.43;55.17;98806.41;4439128;32;20134;-91
2022/04/16 00:07:22;;;;;;;11.88;5.20;;;;;;;13.54;54.97;98814.47;4424922;32;20425;-93
2022/04/16 00:09:48;;;;;;;11.65;5.57;;;;;;;13.50;55.21;98810.34;4438914;32;20136;-92
2022/04/16 00:12:13;;;;;;;11.57;5.37;;;;;;;13.57;55.16;98807.19;4440231;32;20093;-93
2022/04/16 00:14:39;;;;;;;13.50;6.05;;;;;;;13.52;55.33;98800.50;4441104;32;20480;-92
2022/04/16 00:17:05;;;;;;;11.70;5.43;;;;;;;13.84;54.29;98806.28;4427062;32;20133;-93
2022/04/16 00:19:32;;;;;;;12.25;5.60;;;;;;;13.61;54.98;98812.28;4426968;32;20421;-92
2022/04/16 00:21:59;;;;;;;13.62;6.03;;;;;;;13.31;55.90;98827.44;4426924;32;20525;-92
2022/04/16 00:24:26;;;;;;;;;;;;;;;13.21;56.37;98802.47;4427540;32;20131;-93
2022/04/16 00:26:51;;;;;;;15.85;6.15;;;;;;;13.19;56.60;98814.94;4441093;32;19964;-93
2022/04/16 00:29:17;;;;;;;13.50;5.78;;;;;;;13.10;56.83;98813.78;4426927;32;20143;-94
2022/04/16 00:31:45;;;;;;;13.48;6.53;;;;;;;13.02;57.22;98807.25;4426863;32;20469;-92
2022/04/16 00:34:14;;;;;;;14.40;6.07;;;;;;;13.06;56.95;98809.63;4440898;32;20120;-93
2022/04/16 00:36:44;;;;;;;13.62;6.57;;;;;;;13.03;57.33;98798.41;4424193;32;20113;-93
2022/04/16 00:39:09;;;;;;;15.05;6.85;;;;;;;12.88;57.79;98801.06;4424306;32;20463;-93
2022/04/16 00:41:35;;;;;;;14.18;6.60;;;;;;;13.05;57.34;98805.28;4424146;32;20196;-93
2022/04/16 00:44:00;;;;;;;13.48;5.93;;;;;;;12.87;57.72;98801.19;4425292;32;20133;-92
2022/04/16 00:46:26;;;;;;;14.40;6.37;;;;;;;12.81;57.81;98804.22;4424258;32;20437;-93
2022/04/16 00:48:51;;;;;;;14.63;6.50;;;;;;;12.84;57.85;98811.94;4425350;32;20085;-93
2022/04/16 00:51:17;;;;;;;13.05;6.55;;;;;;;12.61;58.34;98803.66;4424204;32;20167;-94
2022/04/16 00:53:43;;;;;;;13.40;6.32;;;;;;;12.70;58.05;98813.66;4425409;32;20094;-93
2022/04/16 00:56:10;;;;;;;15.25;6.87;;;;;;;12.91;57.05;98800.88;4424157;32;20116;-93
2022/04/16 00:58:40;;;;;;;15.25;6.43;;;;;;;12.81;57.36;98807.69;4425325;32;20450;-92
2022/04/16 01:01:05;;;;;;;14.55;6.78;;;;;;;12.78;57.25;98808.72;4424287;32;20149;-92
2022/04/16 01:03:30;;;;;;;13.23;6.07;;;;;;;12.63;57.62;98817.63;4424275;32;20155;-93
2022/04/16 01:05:56;;;;;;;13.15;6.45;;;;;;;12.89;56.75;98820.44;4424442;32;20456;-93
2022/04/16 01:08:22;;;;;;;14.50;6.57;;;;;;;12.68;57.00;98815.53;4425466;32;20086;-92
2022/04/16 01:10:48;;;;;;;13.68;6.57;;;;;;;12.89;56.50;98802.78;4425659;32;20094;-92
2022/04/16 01:13:14;;;;;;;13.75;6.60;;;;;;;12.73;56.86;98815.28;4411289;32;20144;-92
2022/04/16 01:15:41;;;;;;;16.25;7.12;;;;;;;12.86;56.26;98813.53;4424148;32;20483;-92
2022/04/16 01:18:07;;;;;;;12.70;6.50;;;;;;;12.59;56.82;98821.41;4425313;32;20112;-92
2022/04/16 01:20:34;;;;;;;14.73;7.40;;;;;;;12.73;56.57;98818.75;4423958;32;20168;-92
2022/04/16 01:22:59;;;;;;;14.68;7.25;;;;;;;12.36;57.73;98825.47;4423808;32;20433;-93
2022/04/16 01:25:27;;;;;;;14.90;7.57;;;;;;;12.21;58.17;98816.69;4423902;32;20093;-92
2022/04/16 01:27:53;;;;;;;15.52;7.30;;;;;;;12.17;58.26;98821.31;4425301;32;20085;-93
2022/04/16 01:30:20;;;;;;;15.38;7.68;;;;;;;12.19;58.15;98823.88;4424140;32;20163;-92
2022/04/16 01:32:48;;;;;;;15.45;7.43;;;;;;;12.27;57.70;98813.69;4425240;32;20094;-93
2022/04/16 01:35:15;;;;;;;17.83;7.60;;;;;;;12.16;57.95;98806.41;4425936;32;20146;-92
2022/04/16 01:37:40;;;;;;;16.40;7.70;;;;;;;12.14;58.01;98810.94;4426476;32;20128;-94
2022/04/16 01:40:11;;;;;;;16.83;8.07;;;;;;;11.91;58.68;98809.66;4440466;32;20373;-93
2022/04/16 01:42:37;;;;;;;15.15;7.75;;;;;;;11.86;58.93;98803.81;4440407;32;20147;-92
2022/04/16 01:45:08;;;;;;;17.25;8.32;;;;;;;12.16;57.98;98809.03;4426541;32;20090;-92
2022/04/16 01:47:36;;;;;;;17.05;8.45;;;;;;;11.91;58.94;98811.47;4427065;32;20103;-92
2022/04/16 01:50:03;;;;;;;17.55;8.57;;;;;;;11.87;59.01;98815.22;4440630;32;20155;-93
2022/04/16 01:52:29;;;;;;;18.95;9.05;;;;;;;11.50;60.20;98809.44;4413992;32;20136;-92
2022/04/16 01:54:54;;;;;;;18.65;9.13;;;;;;;11.95;59.01;98812.97;4426619;32;20453;-93
2022/04/16 01:57:20;;;;;;;17.83;8.55;;;;;;;11.45;60.69;98809.69;4426381;32;20124;-93
2022/04/16 01:59:46;;;;;;;17.75;9.20;;;;;;;11.62;60.08;98795.53;4440222;32;20125;-93
2022/04/16 02:02:12;;;;;;;19.73;9.68;;;;;;;11.53;60.39;98799.56;4426255;32;20172;-94
2022/04/16 02:04:37;;;;;;;18.92;10.05;;;;;;;11.36;60.99;98804.97;4426430;32;20420;-92
2022/04/16 02:07:03;;;;;;;19.23;9.77;;;;;;;11.29;61.16;98785.16;4440421;32;20108;-92
2022/04/16 02:09:28;;;;;;;18.50;9.35;;;;;;;11.58;60.20;98786.09;4440258;32;20433;-93
2022/04/16 02:11:54;;;;;;;18.67;8.93;;;;;;;11.59;60.13;98788.66;4440416;32;20114;-93
2022/04/16 02:14:21;;;;;;;19.48;9.05;;;;;;;11.59;60.13;98783.38;4426265;32;20393;-92
2022/04/16 02:16:47;;;;;;;20.60;8.55;;;;;;;11.48;60.49;98793.72;4440244;32;20511;-93
2022/04/16 02:19:14;;;;;;;18.83;8.68;;;;;;;11.25;61.19;98788.91;4440270;32;20215;-92
2022/04/16 02:21:39;;;;;;;18.48;8.88;;;;;;;11.26;61.06;98788.84;4440210;32;20451;-92
2022/04/16 02:24:06;;;;;;;18.95;8.80;;;;;;;11.28;61.27;98767.63;4440065;32;20080;-92
2022/04/16 02:26:32;;;;;;;19.12;9.57;;;;;;;11.18;61.18;98784.00;4426122;32;20082;-92
2022/04/16 02:28:59;;;;;;;17.70;8.10;;;;;;;11.47;60.40;98781.44;4425958;32;20145;-92
2022/04/16 02:31:25;;;;;;;19.07;9.27;;;;;;;11.18;61.07;98785.75;4440174;32;20108;-92
2022/04/16 02:33:51;;;;;;;17.48;8.25;;;;;;;11.18;61.12;98783.13;4412343;32;20112;-92
2022/04/16 02:36:16;;;;;;;18.20;8.40;;;;;;;10.92;61.75;98784.62;4439913;32;20482;-92
2022/04/16 02:38:42;;;;;;;18.35;7.72;;;;;;;11.24;60.85;98787.19;4426028;32;20378;-92
2022/04/16 02:41:07;;;;;;;16.67;8.32;;;;;;;11.50;59.90;98786.56;4413107;32;20100;-93
2022/04/16 02:43:33;;;;;;;16.60;8.35;;;;;;;11.39;59.89;98784.53;4439839;32;20085;-93
2022/04/16 02:48:42;;;;;;;16.77;8.70;;;;;;;11.14;60.64;98793.00;4439915;32;20521;-91
2022/04/16 02:51:08;;;;;;;17.77;8.65;;;;;;;11.05;60.71;98804.09;4425797;32;20093;-93
2022/04/16 02:53:34;;;;;;;18.27;8.45;;;;;;;11.04;60.82;98780.44;4425847;32;20108;-92
2022/04/16 02:56:00;;;;;;;17.98;8.32;;;;;;;11.14;60.38;98776.34;4439754;32;20085;-92
2022/04/16 02:58:26;;;;;;;16.25;7.35;;;;;;;11.28;59.90;98786.97;4439746;32;20078;-93
2022/04/16 03:00:53;;;;;;;17.52;7.57;;;;;;;11.14;60.23;98776.34;4439725;32;20093;-92
2022/04/16 03:03:18;;;;;;;17.35;7.55;;;;;;;11.17;60.24;98770.91;4439541;32;20143;-92
2022/04/16 03:05:44;;;;;;;15.65;7.07;;;;;;;11.18;60.11;98773.44;4439596;32;20120;-92
2022/04/16 03:08:12;;;;;;;16.05;7.62;;;;;;;11.02;60.78;98783.16;4439604;32;20114;-93
2022/04/16 03:10:38;;;;;;;17.15;7.65;;;;;;;10.90;60.98;98770.69;4425489;32;20211;-93
2022/04/16 03:13:04;;;;;;;16.40;7.20;;;;;;;11.02;60.57;98764.69;4425589;32;20376;-91
2022/04/16 03:18:13;;;;;;;15.88;7.15;;;;;;;10.65;62.06;98771.19;4427851;32;20120;-93
2022/04/16 03:20:40;;;;;;;15.65;7.12;;;;;;;10.55;62.44;98768.22;4425513;32;20090;-91
2022/04/16 03:23:06;;;;;;;14.73;7.07;;;;;;;10.57;62.36;98780.34;4425352;32;20097;-92
2022/04/16 03:25:32;;;;;;;16.50;7.40;;;;;;;10.65;62.08;98769.41;4425385;32;20327;-92
2022/04/16 03:27:58;;;;;;;14.52;6.50;;;;;;;10.54;62.59;98775.25;4425390;32;20128;-91
2022/04/16 03:30:24;;;;;;;16.23;6.82;;;;;;;10.33;63.41;98802.75;4425391;32;20162;-92
2022/04/16 03:32:50;;;;;;;14.75;6.72;;;;;;;10.33;63.39;98776.41;4425312;32;20085;-92
2022/04/16 03:35:18;;;;;;;14.05;6.90;;;;;;;10.78;61.87;98775.69;4425099;32;20093;-92
2022/04/16 03:37:44;;;;;;;12.98;6.03;;;;;;;10.54;62.63;98780.50;4425312;32;20105;-92
2022/04/16 03:40:10;;;;;;;12.93;5.72;;;;;;;10.46;62.84;98782.72;4412262;32;20388;-92
2022/04/16 03:42:44;;;;;;;14.50;6.68;;;;;;;10.78;61.86;98778.31;4425099;32;20082;-92
2022/04/16 03:45:24;;;;;;;14.45;6.53;;;;;;;10.97;61.23;98785.19;4425895;32;20104;-92
2022/04/16 03:47:51;;;;;;;13.90;6.20;;;;;;;10.88;61.17;98807.66;4427659;32;20098;-92
2022/04/16 03:50:17;;;;;;;14.93;6.47;;;;;;;10.92;61.19;98800.44;4441369;32;20172;-93
2022/04/16 03:52:44;;;;;;;13.35;6.03;;;;;;;10.99;60.81;98809.66;4427535;32;20094;-92
2022/04/16 04:00:43;;;;;;;13.32;5.53;;;;;;;11.03;60.67;98816.50;4441152;32;20203;-92
2022/04/16 04:03:10;;;;;;;13.02;6.45;;;;;;;11.21;60.02;98809.34;4414213;32;20162;-93
2022/04/16 04:05:37;;;;;;;12.02;5.53;;;;;;;10.98;60.65;98811.47;4427159;32;20204;-92
2022/04/16 04:08:07;;;;;;;11.88;5.35;;;;;;;10.84;61.08;98816.66;4441156;32;20089;-92
2022/04/16 04:10:32;;;;;;;13.07;5.97;;;;;;;10.63;61.72;98821.31;4427152;32;20127;-91
2022/04/16 04:12:58;;;;;;;12.50;5.60;;;;;;;10.79;61.38;98813.44;4441054;32;20097;-92
2022/04/16 04:15:24;;;;;;;13.05;5.78;;;;;;;10.75;61.39;98812.75;4427004;32;20104;-93
2022/04/16 04:17:50;;;;;;;13.98;6.22;;;;;;;10.72;61.34;98820.84;4426906;32;20098;-94
2022/04/16 04:20:16;;;;;;;13.77;5.90;;;;;;;10.82;61.00;98814.13;4427361;32;20089;-93
2022/04/16 04:22:41;;;;;;;14.05;5.50;;;;;;;10.53;61.80;98833.31;4426784;32;20123;-93
2022/04/16 04:25:07;;;;;;;14.20;6.65;;;;;;;10.26;62.60;98825.91;4440967;32;20152;-93
2022/04/16 04:27:32;;;;;;;12.55;5.45;;;;;;;10.38;62.30;98827.06;4441001;32;20111;-92
2022/04/16 04:30:01;;;;;;;12.50;5.90;;;;;;;10.65;61.48;98839.69;4440856;32;20156;-92
2022/04/16 04:32:29;;;;;;;12.37;5.35;;;;;;;10.51;61.76;98838.66;4427441;32;20131;-91
2022/04/16 04:34:55;;;;;;;13.57;6.37;;;;;;;10.76;61.16;98843.44;4441241;32;20151;-92
2022/04/16 04:37:20;;;;;;;13.85;5.57;;;;;;;10.84;60.62;98842.19;4427023;32;20101;-93
2022/04/16 04:39:46;;;;;;;12.77;5.45;;;;;;;10.94;60.13;98852.13;4441100;32;20334;-92
2022/04/16 04:42:11;;;;;;;13.15;5.22;;;;;;;10.92;60.26;98848.72;4426843;32;20101;-91
2022/04/16 04:44:37;;;;;;;12.13;5.07;;;;;;;10.45;61.86;98852.16;4427134;32;20164;-92
2022/04/16 04:47:02;;;;;;;11.88;5.45;;;;;;;10.56;61.47;98857.66;4427151;32;20442;-92
2022/04/16 04:49:28;;;;;;;12.80;5.57;;;;;;;10.70;61.11;98869.25;4441134;32;20113;-93
2022/04/16 04:51:53;;;;;;;12.20;5.25;;;;;;;10.87;60.53;98853.38;4441179;32;20069;-92
2022/04/16 04:54:19;;;;;;;13.07;4.90;;;;;;;10.61;61.07;98853.00;4441012;32;20085;-91
2022/04/16 04:56:44;;;;;;;13.73;5.78;;;;;;;10.60;61.41;98840.78;4413745;32;20118;-92
2022/04/16 04:59:10;;;;;;;12.55;6.12;;;;;;;10.89;60.35;98855.94;4426669;32;20121;-92
2022/04/16 05:01:36;;;;;;;12.80;5.28;;;;;;;10.88;60.18;98859.53;4414043;32;20085;-92
2022/04/16 05:04:01;;;;;;;12.40;5.30;;;;;;;10.93;60.23;98868.00;4426770;32;20450;-92
2022/04/16 05:06:26;;;;;;;12.15;5.05;;;;;;;10.86;60.46;98874.56;4426607;32;20105;-92
2022/04/16 05:08:52;;;;;;;12.93;6.30;;;;;;;10.85;60.61;98864.94;4440666;32;20124;-92
2022/04/16 05:11:18;;;;;;;12.60;5.20;;;;;;;11.33;58.82;98864.00;4426798;32;20145;-92
2022/04/16 05:13:43;;;;;;;12.90;5.30;;;;;;;11.29;58.82;98872.19;4413993;32;20077;-93
2022/04/16 05:16:10;;;;;;;11.40;4.75;;;;;;;11.05;59.70;98877.91;4426718;32;20127;-91
2022/04/16 05:18:36;;;;;;;12.52;5.10;;;;;;;11.41;58.76;98882.91;4440871;32;20093;-92
2022/04/16 05:21:01;;;;;;;12.30;4.70;;;;;;;11.70;57.72;98875.09;4440614;32;20093;-93
2022/04/16 05:23:26;;;;;;;11.85;5.40;;;;;;;11.67;57.54;98874.44;4426583;32;20448;-92
2022/04/16 05:25:52;;;;;;;11.60;4.82;;;;;;;11.38;58.02;98883.06;4440532;32;20137;-92
2022/04/16 05:28:17;;;;;;;11.12;4.80;;;;;;;11.76;57.19;98889.72;4426320;32;20422;-92
2022/04/16 05:30:48;;;;;;;10.77;4.45;;;;;;;11.81;56.84;98880.59;4426503;32;20159;-92
2022/04/16 05:36:01;;;;;;;11.32;4.75;;;;;;;11.89;56.08;98876.69;4428623;32;20116;-92
2022/04/16 05:38:26;;;;;;;10.98;4.37;;;;;;;12.12;55.69;98889.41;4426535;32;20097;-91
2022/04/16 05:40:52;;;;;;;12.00;5.45;;;;;;;12.14;55.60;98886.66;4426536;32;20138;-92
2022/04/16 05:43:17;;;;;;;12.57;4.43;;;;;;;12.31;54.66;98890.94;4426369;32;20110;-93
2022/04/16 05:45:44;;;;;;;11.60;4.65;;;;;;;12.35;54.61;98887.19;4440517;32;20108;-92
2022/04/16 05:48:10;;;;;;;11.93;4.78;;;;;;;12.24;54.83;98890.44;4413923;32;20098;-92
2022/04/16 05:50:35;;;;;;;10.95;4.87;;;;;;;12.29;54.29;98883.13;4413873;32;20109;-93
2022/04/16 05:53:01;;;;;;;11.85;4.62;;;;;;;12.44;54.11;98889.28;4440724;32;20113;-92
2022/04/16 05:55:29;;;;;;;11.77;4.25;;;;;;;12.13;54.48;98885.84;4440676;32;20093;-92
2022/04/16 05:57:54;;;;;;;11.32;4.57;;;;;;;12.47;53.77;98890.88;4426623;32;20105;-93
2022/04/16 06:00:20;;;;;;;11.25;4.72;;;;;;;12.80;53.12;98890.59;4440590;32;20069;-92
2022/04/16 06:02:46;;;;;;;10.38;4.37;;;;;;;12.78;52.99;98903.87;4426664;32;20073;-92
2022/04/16 06:05:11;;;;;;;11.15;4.35;;;;;;;13.29;51.77;98900.72;4440641;32;20100;-92
2022/04/16 06:07:37;;;;;;;10.80;4.60;;;;;;;13.37;51.34;98908.22;4426415;32;20129;-93
2022/04/16 06:10:02;;;;;;;11.10;3.97;;;;;;;13.51;50.88;98909.97;4439505;32;20093;-92
2022/04/16 06:12:28;;;;;;;11.00;4.10;;;;;;;13.62;50.31;98902.19;4440509;32;20331;-93
2022/04/16 06:14:53;;;;;;;10.43;4.30;;;;;;;13.78;49.78;98912.63;4440209;32;20081;-92
2022/04/16 06:17:19;;;;;;;11.12;4.57;;;;;;;13.64;50.30;98905.56;4440220;32;20400;-93
2022/04/16 06:19:44;;;;;;;11.98;4.53;;;;;;;13.68;50.01;98901.78;4426205;32;20103;-93
2022/04/16 06:22:13;;;;;;;10.73;4.10;;;;;;;13.54;50.70;98897.38;4439986;32;20121;-91
2022/04/16 06:24:42;;;;;;;11.85;5.10;;;;;;;13.56;50.51;98911.37;4413409;32;20109;-92
2022/04/16 06:27:08;;;;;;;12.18;4.15;;;;;;;13.67;50.49;98905.34;4440220;32;20093;-91
2022/04/16 06:29:33;;;;;;;10.65;3.92;;;;;;;13.37;50.40;98913.50;4426254;32;20104;-93
2022/04/16 06:31:59;;;;;;;10.88;4.12;;;;;;;13.55;50.08;98907.00;4426031;32;20089;-92
2022/04/16 06:34:24;;;;;;;11.20;4.32;;;;;;;13.22;50.38;98925.87;4425956;32;20505;-93
2022/04/16 06:36:50;;;;;;;10.70;4.25;;;;;;;13.29;50.39;98926.31;4439952;32;20085;-92
2022/04/16 06:39:16;;;;;;;10.35;4.05;;;;;;;13.43;50.04;98925.50;4426160;32;20085;-92
2022/04/16 06:41:41;;;;;;;10.32;3.95;;;;;;;13.75;49.28;98915.44;4425940;32;20107;-92
2022/04/16 06:44:06;;;;;;;10.20;4.30;;;;;;;14.04;48.84;98923.28;4425890;32;20382;-92
2022/04/16 06:46:32;;;;;;;11.27;4.68;;;;;;;13.89;48.78;98919.84;4439961;32;20457;-92
2022/04/16 06:48:58;;;;;;;11.30;4.53;;;;;;;13.86;48.71;98923.53;4426046;32;20090;-93
2022/04/16 06:51:23;;;;;;;10.57;4.68;;;;;;;14.12;48.30;98920.97;4425876;32;20373;-92
2022/04/16 06:53:49;;;;;;;9.73;3.95;;;;;;;14.09;48.30;98932.59;4425903;32;20123;-91
2022/04/16 06:56:15;;;;;;;11.05;4.37;;;;;;;14.16;48.24;98933.91;4413002;32;20097;-93
2022/04/16 06:58:40;;;;;;;10.80;4.35;;;;;;;13.95;48.40;98933.53;4425858;32;20085;-92
2022/04/16 07:01:05;;;;;;;10.82;3.95;;;;;;;14.42;47.54;98931.28;4412895;32;20107;-92
2022/04/16 07:03:31;;;;;;;10.48;4.20;;;;;;;14.07;48.32;98931.03;4439654;32;20086;-93
2022/04/16 07:05:56;;;;;;;10.73;4.10;;;;;;;14.32;48.00;98944.31;4425570;32;20097;-92
2022/04/16 07:08:21;;;;;;;10.00;4.12;;;;;;;14.48;47.22;98943.28;4439648;32;20109;-93
2022/04/16 07:10:47;;;;;;;9.70;3.83;;;;;;;14.45;47.33;98940.84;4439564;32;20113;-92
2022/04/16 07:13:12;;;;;;;12.50;4.55;;;;;;;14.40;47.35;98941.16;4439550;32;20117;-92
2022/04/16 07:15:38;;;;;;;10.40;3.95;;;;;;;14.31;47.24;98941.75;4439588;32;20135;-92
2022/04/16 07:18:04;;;;;;;10.05;3.80;;;;;;;14.22;48.32;98956.50;4425380;32;20082;-93
2022/04/16 07:20:30;;;;;;;10.27;3.78;;;;;;;14.61;46.98;98948.63;4440534;32;20101;-92
2022/04/16 07:22:55;;;;;;;10.00;3.78;;;;;;;14.91;46.07;98951.81;4441321;32;20086;-93
2022/04/16 07:25:21;;;;;;;9.85;3.37;;;;;;;14.90;45.73;98951.91;4427354;32;20093;-93
2022/04/16 07:27:47;;;;;;;9.90;4.12;;;;;;;14.83;46.24;98947.97;4441540;32;20429;-93
2022/04/16 07:30:13;;;;;;;10.00;3.90;;;;;;;15.00;45.90;98945.00;4427446;32;20128;-93
2022/04/16 07:32:39;;;;;;;10.43;3.95;;;;;;;15.33;45.17;98951.53;4427518;32;20173;-93
2022/04/16 07:35:05;;;;;;;10.88;4.15;;;;;;;15.33;45.08;98965.63;4427422;32;20485;-93
2022/04/16 07:37:31;;;;;;;11.38;3.90;;;;;;;15.34;44.63;98951.44;4427102;32;20120;-92
2022/04/16 07:39:56;;;;;;;9.93;3.60;;;;;;;15.32;44.75;98956.00;4427356;32;20429;-93
2022/04/16 07:42:25;;;;;;;9.50;3.90;;;;;;;15.29;44.83;98955.38;4427294;32;20148;-92
2022/04/16 07:44:51;;;;;;;10.43;3.75;;;;;;;15.45;44.37;98945.34;4441314;32;20115;-92
2022/04/16 07:47:16;;;;;;;10.07;3.37;;;;;;;15.44;44.56;98954.25;4427652;32;20089;-93
2022/04/16 07:49:41;;;;;;;9.82;3.60;;;;;;;15.60;44.40;98948.69;4427407;32;20123;-92
2022/04/16 07:52:07;;;;;;;9.20;3.30;;;;;;;15.41;44.74;98943.00;4427324;32;20251;-93
2022/04/16 07:54:32;;;;;;;10.40;3.42;;;;;;;15.51;44.86;98949.34;4441237;32;20384;-93
2022/04/16 07:56:58;;;;;;;9.82;3.30;;;;;;;15.80;43.65;98943.75;4441191;32;20397;-93
2022/04/16 07:59:23;;;;;;;8.68;3.10;;;;;;;16.12;43.14;98946.69;4441359;32;20097;-93
2022/04/16 08:01:48;;;;;;;12.27;3.40;;;;;;;16.21;42.28;98946.00;4427198;32;20163;-93
2022/04/16 08:04:14;;;;;;;10.13;3.50;;;;;;;16.22;42.78;98947.69;4441123;32;20111;-93
2022/04/16 08:06:39;;;;;;;8.55;2.67;;;;;;;16.45;42.89;98947.75;4427049;32;20089;-93
2022/04/16 08:09:05;;;;;;;9.60;3.28;;;;;;;16.33;42.84;98962.81;4441077;32;20147;-92
2022/04/16 08:11:31;;;;;;;8.80;3.47;;;;;;;16.05;42.89;98956.94;4441125;32;20157;-92
2022/04/16 08:13:57;;;;;;;8.93;3.33;;;;;;;16.15;43.46;98978.34;4414348;32;20093;-92
2022/04/16 08:16:23;;;;;;;9.65;3.58;;;;;;;16.22;42.67;98966.28;4441084;32;20409;-93
2022/04/16 08:18:48;;;;;;;8.13;3.03;;;;;;;16.28;41.51;98971.16;4427049;32;20093;-93
2022/04/16 08:21:14;;;;;;;8.35;3.00;;;;;;;16.54;40.92;98959.50;4414187;32;20166;-92
2022/04/16 08:23:44;;;;;;;9.88;3.42;;;;;;;16.41;40.91;98968.41;4441019;32;20116;-93
2022/04/16 08:26:13;;;;;;;9.25;3.00;;;;;;;16.53;40.55;98963.97;4427631;32;20116;-93
2022/04/16 08:28:38;;;;;;;9.57;2.90;;;;;;;16.59;40.54;98957.34;4427290;32;20077;-93
2022/04/16 08:31:04;;;;;;;10.13;3.37;;;;;;;16.44;40.61;98960.22;4413735;32;20119;-94
2022/04/16 08:33:29;;;;;;;9.30;3.25;;;;;;;16.67;40.07;98962.94;4440830;32;20093;-93
2022/04/16 08:35:55;;;;;;;9.23;3.42;;;;;;;16.69;40.32;98956.50;4440990;32;20085;-93
2022/04/16 08:38:20;;;;;;;10.00;3.25;;;;;;;16.67;39.86;98970.91;4427325;32;20426;-93
2022/04/16 08:40:47;;;;;;;8.90;2.80;;;;;;;16.47;40.29;98970.59;4441105;32;20097;-93
2022/04/16 08:43:13;;;;;;;7.87;2.75;;;;;;;16.68;40.35;98972.59;4427165;32;20497;-93
2022/04/16 08:45:39;;;;;;;8.52;3.30;;;;;;;16.42;40.38;98974.59;4441156;32;20081;-93
2022/04/16 08:48:05;;;;;;;7.65;2.58;;;;;;;16.68;40.91;98972.59;4427230;32;20074;-92
2022/04/16 08:50:31;;;;;;;7.75;2.90;;;;;;;16.62;40.59;98973.06;4441118;32;20125;-93
2022/04/16 08:52:58;;;;;;;7.00;2.35;;;;;;;16.47;40.70;98969.75;4441057;32;20148;-93
2022/04/16 08:55:23;;;;;;;8.40;2.92;;;;;;;15.70;42.44;98978.06;4427226;32;20085;-93
2022/04/16 08:57:48;;;;;;;6.45;2.22;;;;;;;15.77;42.41;98984.69;4440946;32;20432;-93
2022/04/16 09:00:15;;;;;;;9.05;2.60;;;;;;;15.96;42.18;98986.00;4427000;32;20151;-93
2022/04/16 09:02:51;;;;;;;7.57;2.50;;;;;;;15.82;42.47;98985.19;4440969;32;20092;-92
2022/04/16 09:05:19;;;;;;;8.88;2.58;;;;;;;15.62;42.82;98989.25;4427022;32;20142;-93
2022/04/16 09:07:48;;;;;;;6.93;2.17;;;;;;;15.62;42.88;98981.28;4426826;32;20090;-93
2022/04/16 09:10:14;;;;;;;7.53;2.60;;;;;;;15.39;43.28;98982.94;4426530;32;20117;-93
2022/04/16 09:12:40;;;;;;;7.25;2.10;;;;;;;15.31;43.48;98994.09;4426773;32;20146;-92
2022/04/16 09:15:10;;;;;;;7.18;2.10;;;;;;;15.53;43.37;98981.97;4426694;32;20101;-92
2022/04/16 09:17:37;;;;;;;7.97;2.40;;;;;;;15.53;42.98;98985.47;4426779;32;20093;-92
2022/04/16 09:20:04;;;;;;;6.78;2.10;;;;;;;15.45;43.24;98989.63;4440941;32;20128;-93
2022/04/16 09:22:34;;;;;;;8.02;2.20;;;;;;;15.52;43.12;98993.53;4413985;32;20109;-93
2022/04/16 09:25:00;;;;;;;6.97;2.22;;;;;;;15.51;43.25;99000.66;4426860;32;20206;-94
2022/04/16 09:27:26;;;;;;;5.78;2.12;;;;;;;15.64;42.92;98991.81;4413999;32;20178;-93
2022/04/16 09:29:54;;;;;;;6.50;2.20;;;;;;;16.14;42.09;98991.75;4426831;32;20152;-93
2022/04/16 09:32:22;;;;;;;5.93;1.90;;;;;;;16.19;42.00;98985.13;4440891;32;20098;-92
2022/04/16 09:34:47;;;;;;;7.47;2.00;;;;;;;16.59;41.36;98997.22;4426716;32;20113;-92
2022/04/16 09:37:13;;;;;;;6.32;2.30;;;;;;;16.81;40.60;98983.16;4440602;32;20081;-93
2022/04/16 09:39:38;;;;;;;7.68;2.40;;;;;;;16.46;40.77;98992.00;4414002;32;20094;-93
2022/04/16 09:42:04;;;;;;;6.82;1.83;;;;;;;16.36;41.30;99002.50;4440460;32;20338;-92
2022/04/16 09:44:30;;;;;;;8.43;2.40;;;;;;;16.40;40.92;98998.62;4440432;32;20115;-93
2022/04/16 09:46:56;;;;;;;7.25;2.05;;;;;;;16.38;41.19;98997.91;4440505;32;20065;-93
2022/04/16 09:49:22;;;;;;;7.18;2.00;;;;;;;15.97;41.60;99001.81;4424271;32;74358;-93
2022/04/16 09:51:49;;;;;;;7.03;2.10;;;;;;;16.18;41.16;98996.72;4426525;32;20142;-92
2022/04/16 09:54:15;;;;;;;7.57;2.05;;;;;;;16.39;40.81;98991.59;4426491;32;20097;-93
2022/04/16 09:56:44;;;;;;;9.27;2.35;;;;;;;16.03;41.51;98992.53;4440752;32;20107;-92
2022/04/16 09:59:12;;;;;;;6.03;2.03;;;;;;;16.01;41.46;98997.13;4413752;32;20097;-93
2022/04/16 10:01:38;;;;;;;;;;;;;;;16.17;41.34;98991.50;4427059;32;20124;-93
2022/04/16 10:04:07;;;;;;;7.03;2.15;;;;;;;16.38;41.19;98991.72;4440512;32;19973;-92
2022/04/16 10:06:33;;;;;;;6.05;1.85;;;;;;;16.04;41.39;98992.44;4426560;32;20165;-92
2022/04/16 10:09:00;;;;;;;5.85;2.10;;;;;;;16.05;41.23;98990.62;4426365;32;20148;-93
2022/04/16 10:14:25;;;;;;;7.10;2.00;;;;;;;16.74;40.00;98989.91;4428475;32;20483;-93
2022/04/16 10:16:56;;;;;;;8.35;2.35;;;;;;;17.08;39.52;98985.50;4426544;32;20081;-93
2022/04/16 10:19:21;;;;;;;4.97;1.52;;;;;;;17.49;37.93;98982.22;4440362;32;20484;-93
2022/04/16 10:21:52;;;;;;;5.62;1.70;;;;;;;17.59;37.88;98990.31;4426192;32;20098;-93
2022/04/16 10:24:25;;;;;;;6.93;2.22;;;;;;;17.82;38.19;98985.78;4413357;32;20203;-93
2022/04/16 10:26:51;;;;;;;5.95;2.03;;;;;;;18.27;36.84;98980.34;4440258;32;20167;-93
2022/04/16 10:29:19;;;;;;;6.22;1.90;;;;;;;18.42;35.96;98980.88;4440258;32;20389;-93
2022/04/16 10:31:49;;;;;;;5.95;2.10;;;;;;;18.40;36.19;98984.66;4440164;32;20506;-93
2022/04/16 10:34:16;;;;;;;5.87;2.10;;;;;;;18.45;35.46;98980.63;4426354;32;20509;-93
2022/04/16 10:36:52;;;;;;;5.05;1.90;;;;;;;18.37;35.17;98979.56;4426153;32;20115;-93
2022/04/16 10:39:19;;;;;;;6.28;1.70;;;;;;;18.39;35.10;98975.81;4440136;32;20165;-93
2022/04/16 10:41:58;;;;;;;5.40;1.60;;;;;;;18.39;35.13;98969.63;4426105;32;20168;-93
2022/04/16 10:44:25;;;;;;;5.22;1.80;;;;;;;18.54;35.23;98976.31;4413307;32;20116;-93
2022/04/16 10:46:52;;;;;;;4.40;1.60;;;;;;;18.49;35.24;98970.53;4426023;32;20085;-93
2022/04/16 10:49:31;;;;;;;4.70;1.77;;;;;;;18.40;35.40;98979.31;4426034;32;20132;-93
2022/04/16 10:51:57;;;;;;;4.43;1.75;;;;;;;18.30;35.41;98975.72;4426587;32;20113;-93
2022/04/16 10:54:34;;;;;;;4.72;1.62;;;;;;;18.12;35.62;98972.75;4439164;32;20120;-92
2022/04/16 10:57:00;;;;;;;5.43;1.42;;;;;;;17.84;35.65;98977.69;4426795;32;20539;-93
2022/04/16 10:59:39;;;;;;;3.83;1.50;;;;;;;17.64;36.15;98980.13;4425983;32;20159;-93
2022/04/16 11:02:19;;;;;;;6.40;1.50;;;;;;;17.35;36.90;98985.13;4413017;32;20515;-93
2022/04/16 11:05:10;;;;;;;4.43;1.30;;;;;;;17.71;36.67;98988.47;4425857;32;20115;-93
2022/04/16 11:07:37;;;;;;;4.75;1.37;;;;;;;17.82;37.10;98984.94;4439740;32;20119;-92
2022/04/16 11:10:05;;;;;;;5.07;1.60;;;;;;;17.42;38.91;98989.00;4425934;32;20109;-93
2022/04/16 11:12:30;;;;;;;4.55;1.60;;;;;;;17.54;40.01;98991.66;4425821;32;20106;-93
2022/04/16 11:14:56;;;;;;;7.00;2.08;;;;;;;17.19;41.39;99003.28;4439456;32;20116;-93
2022/04/16 11:17:21;;;;;;;6.97;2.25;;;;;;;16.64;43.02;98998.56;4439531;32;20460;-92
2022/04/16 11:20:07;;;;;;;6.55;2.08;;;;;;;16.44;45.22;99013.38;4425551;32;20105;-92
2022/04/16 11:22:33;;;;;;;5.50;2.05;;;;;;;16.25;48.02;99008.59;4412246;32;20109;-92
2022/04/16 11:24:59;;;;;;;6.43;2.05;;;;;;;16.42;49.12;99007.34;4439580;32;20109;-92
2022/04/16 11:36:07;;;;;;;6.75;2.00;;;;;;;16.44;48.45;99004.56;4427381;32;19988;-92
2022/04/16 11:38:33;;;;;;;5.60;1.98;;;;;;;16.67;49.54;99001.00;4425464;32;20077;-94
2022/04/16 11:41:00;;;;;;;5.18;1.75;;;;;;;16.81;48.90;98994.63;4412452;32;20476;-93
2022/04/16 11:43:28;;;;;;;6.50;1.98;;;;;;;17.27;48.31;98987.56;4425276;32;20090;-93
2022/04/16 11:45:55;;;;;;;8.20;2.25;;;;;;;17.28;48.33;98982.09;4425349;32;20102;-93
2022/04/16 11:48:21;;;;;;;4.30;1.70;;;;;;;17.69;48.90;98982.41;4412520;32;20086;-93
2022/04/16 11:50:46;;;;;;;5.97;1.90;;;;;;;18.07;47.58;98973.16;4425189;32;20389;-92